Tutti
Cleve Airport (Cleve, South Australia) CVC Meteo
|
Cleve, South Australia (CVC / YCEE)
Cielo sereno
Venti leggeri |
|
8 °C |
There is no TAF data available at CVC or any nearby airports.
Storico METAR CVC recente
| Date | Time (ACST) | Flight Rules | Wind Dir. | Speed | Type | Height AGL (ft) | Visibility | Temp (°C) | Temp (°F) | Dew Point (°C) | Dew Point (°F) | Rel. Humid. | Pressure | Density Altitude | Remarks |
|---|---|---|---|---|---|---|---|---|---|---|---|---|---|---|---|
| 06-set | 05:30 | n/a | 280° | 4 kt | Missing | 8° | 46° | 5° | 41° | 81% | 1022 mb | -511 ft | |||
| 06-set | 04:30 | n/a | 270° | 4 kt | Missing | 8° | 46° | 5° | 41° | 81% | 1022 mb | -511 ft | |||
| 06-set | 03:30 | n/a | 290° | 5 kt | Missing | 9° | 48° | 6° | 42° | 81% | 1021 mb | -361 ft | |||
| 06-set | 02:30 | n/a | 250° | 3 kt | Missing | 9° | 48° | 6° | 42° | 81% | 1022 mb | -391 ft | |||
| 06-set | 01:30 | n/a | 290° | 5 kt | Missing | 8° | 46° | 6° | 42° | 87% | 1022 mb | -511 ft | |||
| 06-set | 00:30 | n/a | 280° | 5 kt | Missing | 7° | 44° | 4° | 39° | 81% | 1022 mb | -631 ft | |||
| 05-set | 23:30 | n/a | 270° | 7 kt | Missing | 8° | 46° | 5° | 41° | 81% | 1022 mb | -511 ft | |||
| 05-set | 22:30 | n/a | 270° | 7 kt | Missing | 9° | 48° | 5° | 41° | 76% | 1022 mb | -391 ft | |||
| 05-set | 21:30 | n/a | 270° | 8 kt | Missing | 9° | 48° | 6° | 42° | 81% | 1022 mb | -391 ft | |||
| 05-set | 20:30 | n/a | 250° | 8 kt | Missing | 10° | 50° | 6° | 42° | 76% | 1021 mb | -241 ft | |||
| 05-set | 19:30 | n/a | 260° | 5 kt | Missing | 10° | 50° | 5° | 41° | 71% | 1020 mb | -212 ft | |||
| 05-set | 18:30 | n/a | 240° | 10 kt | Missing | 11° | 51° | 5° | 41° | 66% | 1019 mb | -62 ft | |||
| 05-set | 17:30 | n/a | 240° | 12 kt | Missing | 13° | 55° | 6° | 42° | 62% | 1018 mb | 207 ft | |||
| 05-set | 16:30 | n/a | 250° | 16 kt | Missing | 15° | 59° | 6° | 42° | 55% | 1018 mb | 447 ft | |||
| 05-set | 15:30 | n/a | 260° | 17 kt | Missing | 14° | 57° | 6° | 42° | 58% | 1017 mb | 357 ft | |||
| 05-set | 14:30 | n/a | 260° | 18 kt | Missing | 15° | 59° | 6° | 42° | 55% | 1017 mb | 477 ft | |||
| 05-set | 13:30 | n/a | 270° | 19 kt | Missing | 15° | 59° | 7° | 44° | 59% | 1016 mb | 507 ft | |||
| 05-set | 12:30 | n/a | 260° | 21 kt | Missing | 15° | 59° | 5° | 41° | 51% | 1016 mb | 507 ft | Wind gusting to 31 KT | ||
| 05-set | 11:35 | n/a | 250° | 21 kt | Missing | 14° | 57° | 8° | 46° | 67% | 1016 mb | 387 ft | Wind gusting to 31 KT | ||
| 05-set | 10:33 | n/a | 260° | 21 kt | Missing | 14° | 57° | 6° | 42° | 58% | 1016 mb | 387 ft | |||
| 05-set | 09:30 | n/a | 260° | 23 kt | Missing | 14° | 57° | 6° | 42° | 58% | 1015 mb | 416 ft | |||
| 05-set | 08:37 | n/a | 270° | 19 kt | Missing | 13° | 55° | 9° | 48° | 77% | 1014 mb | 326 ft | Wind gusting to 32 KT | ||
| 05-set | 07:30 | n/a | 280° | 17 kt | Missing | 12° | 53° | 9° | 48° | 82% | 1013 mb | 235 ft | |||
| 05-set | 06:30 | n/a | 290° | 14 kt | Missing | 12° | 53° | 9° | 48° | 82% | 1012 mb | 265 ft |
Accedi
| Il tuo browser non è supportato. fai l'upgrade del tuo browser |
